Time;durP1;ratioP1;P1;durP2;ratioP2;P2;SDS_P1;SDS_P2;PMS_P1;PMS_P2;Temp;Humidity;BMP_temperature;BMP_pressure;BME280_temperature;BME280_humidity;BME280_pressure;Samples;Min_cycle;Max_cycle;Signal;HPM_P1;HPM_P2
2022/12/23 00:01:23;;;;;;;88.18;25.85;;;;;;;;;;4966853;28;20482;-90
2022/12/23 00:03:49;;;;;;;96.13;25.45;;;;;;;;;;4978997;28;20113;-90
2022/12/23 00:06:16;;;;;;;78.25;24.02;;;;;;;;;;4955493;28;20054;-89
2022/12/23 00:08:42;;;;;;;77.55;24.58;;;;;;;;;;4968009;28;20026;-91
2022/12/23 00:11:16;;;;;;;88.03;27.10;;;;;;;;;;4967937;28;20042;-90
2022/12/23 00:16:27;;;;;;;91.80;24.80;;;;;;;;;;4982910;28;20112;-90
2022/12/23 00:18:53;;;;;;;74.47;23.92;;;;;;;;;;4985052;28;20046;-89
2022/12/23 00:21:19;;;;;;;115.57;26.85;;;;;;;;;;4967260;28;20449;-90
2022/12/23 00:23:46;;;;;;;97.38;26.27;;;;;;;;;;4980307;28;20468;-90
2022/12/23 00:26:23;;;;;;;93.90;26.92;;;;;;;;;;4969040;28;20027;-90
2022/12/23 00:28:49;;;;;;;105.38;28.58;;;;;;;;;;4982653;28;20027;-89
2022/12/23 00:31:19;;;;;;;83.82;25.50;;;;;;;;;;4982411;28;20086;-89
2022/12/23 00:33:46;;;;;;;80.22;24.90;;;;;;;;;;4965737;28;20027;-89
2022/12/23 00:36:12;;;;;;;90.43;25.58;;;;;;;;;;4968123;28;20391;-90
2022/12/23 00:44:08;;;;;;;87.32;24.55;;;;;;;;;;4980144;28;20033;-90
2022/12/23 00:46:34;;;;;;;86.30;26.98;;;;;;;;;;4966815;28;20502;-89
2022/12/23 00:51:45;;;;;;;89.57;25.80;;;;;;;;;;4996708;28;20045;-91
2022/12/23 00:54:11;;;;;;;88.07;26.40;;;;;;;;;;4969342;28;20145;-90
2022/12/23 00:56:37;;;;;;;105.28;28.77;;;;;;;;;;4972854;28;20153;-91
2022/12/23 00:59:03;;;;;;;99.25;28.55;;;;;;;;;;4989516;28;20065;-91
2022/12/23 01:06:59;;;;;;;81.85;24.20;;;;;;;;;;4999347;28;20113;-89
2022/12/23 01:09:25;;;;;;;90.18;25.45;;;;;;;;;;4997916;28;20040;-90
2022/12/23 01:11:51;;;;;;;89.75;25.52;;;;;;;;;;4968417;28;20082;-90
2022/12/23 01:14:17;;;;;;;100.00;26.80;;;;;;;;;;4993945;28;20507;-90
2022/12/23 01:16:44;;;;;;;102.75;27.58;;;;;;;;;;4969515;28;21082;-90
2022/12/23 01:19:10;;;;;;;96.75;25.85;;;;;;;;;;4996409;28;20349;-90
2022/12/23 01:21:36;;;;;;;105.10;26.95;;;;;;;;;;4975037;28;20117;-90
2022/12/23 01:24:02;;;;;;;86.13;25.13;;;;;;;;;;4988747;28;20026;-90
2022/12/23 01:26:28;;;;;;;95.38;26.70;;;;;;;;;;5012648;28;20453;-90
2022/12/23 01:28:55;;;;;;;85.38;27.45;;;;;;;;;;4976590;28;20060;-90
2022/12/23 01:31:22;;;;;;;97.60;27.92;;;;;;;;;;5002074;28;20030;-91
2022/12/23 01:33:48;;;;;;;85.88;26.23;;;;;;;;;;5001176;28;20030;-89
2022/12/23 01:36:14;;;;;;;96.03;26.83;;;;;;;;;;4993484;28;20500;-91
2022/12/23 01:38:40;;;;;;;102.32;28.45;;;;;;;;;;4998787;28;20552;-91
2022/12/23 01:41:06;;;;;;;91.43;27.08;;;;;;;;;;4992467;28;20030;-89
2022/12/23 01:43:48;;;;;;;92.22;27.15;;;;;;;;;;4994888;28;20511;-90
2022/12/23 01:46:15;;;;;;;104.47;25.98;;;;;;;;;;5005722;28;20345;-90
2022/12/23 01:48:47;;;;;;;115.25;29.30;;;;;;;;;;5007471;28;20497;-90
2022/12/23 01:51:15;;;;;;;98.20;28.70;;;;;;;;;;5007577;28;20060;-90
2022/12/23 01:53:47;;;;;;;108.57;30.48;;;;;;;;;;5005218;28;20490;-90
2022/12/23 01:56:14;;;;;;;124.32;30.50;;;;;;;;;;5003389;28;20035;-90
2022/12/23 01:58:43;;;;;;;108.70;29.23;;;;;;;;;;5003187;28;20065;-91
2022/12/23 02:03:57;;;;;;;100.75;27.50;;;;;;;;;;5007321;28;20037;-90
2022/12/23 02:09:17;;;;;;;105.95;27.83;;;;;;;;;;5007397;28;20133;-89
2022/12/23 02:11:56;;;;;;;123.43;30.70;;;;;;;;;;4993279;28;20458;-90
2022/12/23 02:17:41;;;;;;;97.53;25.85;;;;;;;;;;5001577;28;20165;-89
2022/12/23 02:20:07;;;;;;;100.13;26.05;;;;;;;;;;5004860;28;20100;-90
2022/12/23 02:22:42;;;;;;;105.32;28.25;;;;;;;;;;5000636;28;20803;-90
2022/12/23 02:25:22;;;;;;;110.47;29.42;;;;;;;;;;5000929;28;20021;-91
2022/12/23 02:28:07;;;;;;;103.30;28.30;;;;;;;;;;4998478;28;20033;-91
2022/12/23 02:30:39;;;;;;;107.43;28.67;;;;;;;;;;5004982;28;20026;-90
2022/12/23 02:33:30;;;;;;;93.80;25.90;;;;;;;;;;5006353;28;20120;-91
2022/12/23 02:36:05;;;;;;;99.53;25.77;;;;;;;;;;5003112;28;20034;-90
2022/12/23 02:38:41;;;;;;;119.28;28.88;;;;;;;;;;4988080;28;20034;-90
2022/12/23 02:41:07;;;;;;;110.28;26.88;;;;;;;;;;5002568;28;20308;-90
2022/12/23 02:43:42;;;;;;;115.10;26.38;;;;;;;;;;5003034;28;20030;-91
2022/12/23 02:46:17;;;;;;;110.28;26.85;;;;;;;;;;4995839;28;20113;-91
2022/12/23 02:48:47;;;;;;;112.90;25.48;;;;;;;;;;4976285;28;20019;-90
2022/12/23 02:51:14;;;;;;;99.20;27.23;;;;;;;;;;4974131;28;20459;-90
2022/12/23 02:53:47;;;;;;;113.40;27.85;;;;;;;;;;4974558;28;20034;-91
2022/12/23 02:56:14;;;;;;;117.65;29.30;;;;;;;;;;4988185;28;20045;-90
2022/12/23 02:58:44;;;;;;;102.90;26.80;;;;;;;;;;4969944;28;20038;-91
2022/12/23 03:01:11;;;;;;;110.57;27.52;;;;;;;;;;4975715;28;20037;-90
2022/12/23 03:03:37;;;;;;;95.03;25.05;;;;;;;;;;4983107;28;20043;-91
2022/12/23 03:06:13;;;;;;;98.82;26.10;;;;;;;;;;4972779;28;20477;-90
2022/12/23 03:08:42;;;;;;;118.00;28.25;;;;;;;;;;4971205;28;20398;-91
2022/12/23 03:11:10;;;;;;;104.57;26.63;;;;;;;;;;4975732;28;20117;-91
2022/12/23 03:13:36;;;;;;;102.60;24.63;;;;;;;;;;4972574;28;20129;-91
2022/12/23 03:16:23;;;;;;;109.70;25.52;;;;;;;;;;4971899;28;20129;-89
2022/12/23 03:18:49;;;;;;;96.30;24.38;;;;;;;;;;4983215;28;20019;-91
2022/12/23 03:21:44;;;;;;;95.95;24.80;;;;;;;;;;4970214;28;20078;-91
2022/12/23 03:24:17;;;;;;;62.72;19.92;;;;;;;;;;4956288;28;20046;-89
2022/12/23 03:26:54;;;;;;;85.57;21.40;;;;;;;;;;4985000;28;20049;-90
2022/12/23 03:29:35;;;;;;;93.60;22.70;;;;;;;;;;4983903;28;20030;-89
2022/12/23 03:32:03;;;;;;;85.55;22.15;;;;;;;;;;4971082;28;20033;-91
2022/12/23 03:34:32;;;;;;;81.60;20.98;;;;;;;;;;4986514;28;20121;-91
2022/12/23 03:37:00;;;;;;;84.57;21.20;;;;;;;;;;4985726;28;20843;-91
2022/12/23 03:39:30;;;;;;;72.35;18.75;;;;;;;;;;4971789;28;20066;-91
2022/12/23 03:42:00;;;;;;;82.68;19.88;;;;;;;;;;4987925;28;20363;-90
2022/12/23 03:44:29;;;;;;;93.90;21.42;;;;;;;;;;4971742;28;20065;-90
2022/12/23 03:47:04;;;;;;;65.38;19.85;;;;;;;;;;4990130;28;20098;-90
2022/12/23 03:49:33;;;;;;;103.75;21.83;;;;;;;;;;5008719;28;20131;-90
2022/12/23 03:52:02;;;;;;;65.57;17.13;;;;;;;;;;5010874;28;20035;-90
2022/12/23 03:54:35;;;;;;;80.22;19.83;;;;;;;;;;4993399;28;20443;-90
2022/12/23 03:57:02;;;;;;;96.10;18.65;;;;;;;;;;5002918;28;20084;-90
2022/12/23 03:59:33;;;;;;;87.10;19.35;;;;;;;;;;5003445;28;20038;-90
2022/12/23 04:02:05;;;;;;;84.80;19.88;;;;;;;;;;5004526;28;20559;-90
2022/12/23 04:04:37;;;;;;;76.00;19.73;;;;;;;;;;5001610;28;20524;-90
2022/12/23 04:07:06;;;;;;;85.57;19.90;;;;;;;;;;5002607;28;20026;-91
2022/12/23 04:09:32;;;;;;;95.93;20.90;;;;;;;;;;4986962;28;20033;-90
2022/12/23 04:11:58;;;;;;;78.78;20.50;;;;;;;;;;4999896;28;20030;-89
2022/12/23 04:14:24;;;;;;;89.60;19.50;;;;;;;;;;4990488;28;20042;-90
2022/12/23 04:16:53;;;;;;;93.65;21.40;;;;;;;;;;4978770;28;20101;-90
2022/12/23 04:19:19;;;;;;;100.40;20.27;;;;;;;;;;4988143;28;20061;-90
2022/12/23 04:21:45;;;;;;;90.45;20.42;;;;;;;;;;4979527;28;20045;-90
2022/12/23 04:24:11;;;;;;;95.43;20.83;;;;;;;;;;4967985;28;20046;-90
2022/12/23 04:26:37;;;;;;;92.68;21.00;;;;;;;;;;4984172;28;20034;-90
2022/12/23 04:29:04;;;;;;;95.97;22.00;;;;;;;;;;4970254;28;20647;-90
2022/12/23 04:31:30;;;;;;;92.03;20.52;;;;;;;;;;4972544;28;20484;-90
2022/12/23 04:33:56;;;;;;;97.68;20.77;;;;;;;;;;4987622;28;20100;-91
2022/12/23 04:36:22;;;;;;;95.93;22.13;;;;;;;;;;4973891;28;20048;-91
2022/12/23 04:38:48;;;;;;;118.57;21.95;;;;;;;;;;4985878;28;20068;-90
2022/12/23 04:41:14;;;;;;;90.05;21.27;;;;;;;;;;4985400;28;20541;-91
2022/12/23 04:43:40;;;;;;;82.70;19.83;;;;;;;;;;4970505;28;20136;-91
2022/12/23 04:46:13;;;;;;;92.65;21.30;;;;;;;;;;4988567;28;20046;-90
2022/12/23 04:48:46;;;;;;;96.57;22.02;;;;;;;;;;4998928;28;20564;-91
2022/12/23 04:51:12;;;;;;;85.68;18.98;;;;;;;;;;5000775;28;20030;-91
2022/12/23 04:53:38;;;;;;;76.78;18.48;;;;;;;;;;4986822;28;20076;-91
2022/12/23 04:56:04;;;;;;;97.45;21.33;;;;;;;;;;4974986;28;20037;-89
2022/12/23 04:58:30;;;;;;;84.10;19.27;;;;;;;;;;4985071;28;20390;-91
2022/12/23 05:01:03;;;;;;;79.78;19.48;;;;;;;;;;4981654;28;20042;-92
2022/12/23 05:03:30;;;;;;;74.10;18.23;;;;;;;;;;4969110;28;20626;-91
2022/12/23 05:05:56;;;;;;;97.40;18.80;;;;;;;;;;4988355;28;20030;-91
2022/12/23 05:08:22;;;;;;;64.13;17.63;;;;;;;;;;4998977;28;20022;-91
2022/12/23 05:10:48;;;;;;;83.28;18.73;;;;;;;;;;4983552;28;20427;-91
2022/12/23 05:13:14;;;;;;;67.05;17.38;;;;;;;;;;4985400;28;20030;-91
2022/12/23 05:15:40;;;;;;;67.93;16.42;;;;;;;;;;4986737;28;20117;-91
2022/12/23 05:18:06;;;;;;;88.88;18.35;;;;;;;;;;4989409;28;20025;-90
2022/12/23 05:20:32;;;;;;;67.97;15.43;;;;;;;;;;4988636;28;20033;-90
2022/12/23 05:22:58;;;;;;;81.43;16.88;;;;;;;;;;5000541;28;20461;-90
2022/12/23 05:25:24;;;;;;;67.97;15.57;;;;;;;;;;4991117;28;20097;-89
2022/12/23 05:27:50;;;;;;;58.50;16.30;;;;;;;;;;4976572;28;20061;-91
2022/12/23 05:30:16;;;;;;;70.97;15.90;;;;;;;;;;4972941;28;20100;-91
2022/12/23 05:32:42;;;;;;;68.07;17.58;;;;;;;;;;4991381;28;20070;-92
2022/12/23 05:35:08;;;;;;;65.95;16.08;;;;;;;;;;4991995;28;20122;-91
2022/12/23 05:37:34;;;;;;;54.95;14.63;;;;;;;;;;4990962;28;20033;-91
2022/12/23 05:40:00;;;;;;;52.83;14.40;;;;;;;;;;5004114;28;20064;-92
2022/12/23 05:42:26;;;;;;;70.15;15.98;;;;;;;;;;4978583;28;20053;-90
2022/12/23 05:44:52;;;;;;;62.88;17.27;;;;;;;;;;4979665;28;20026;-91
2022/12/23 05:47:18;;;;;;;71.35;17.95;;;;;;;;;;5001232;28;20151;-92
2022/12/23 05:49:44;;;;;;;54.53;16.63;;;;;;;;;;4988740;28;20096;-92
2022/12/23 05:52:10;;;;;;;71.70;21.05;;;;;;;;;;5000079;28;20038;-91
2022/12/23 05:54:39;;;;;;;71.00;17.20;;;;;;;;;;4976377;28;20077;-92
2022/12/23 05:57:05;;;;;;;62.17;16.00;;;;;;;;;;4972257;28;20038;-92
2022/12/23 05:59:31;;;;;;;64.90;17.45;;;;;;;;;;4990994;28;20034;-91
2022/12/23 06:01:57;;;;;;;59.88;16.00;;;;;;;;;;4997697;28;20666;-91
2022/12/23 06:04:23;;;;;;;66.55;16.88;;;;;;;;;;4989539;28;20092;-91
2022/12/23 06:06:49;;;;;;;63.22;17.40;;;;;;;;;;4970914;28;20106;-91
2022/12/23 06:09:15;;;;;;;66.97;18.58;;;;;;;;;;5000495;28;20030;-91
2022/12/23 06:11:41;;;;;;;66.57;16.67;;;;;;;;;;4984555;28;20031;-89
2022/12/23 06:14:07;;;;;;;65.63;17.23;;;;;;;;;;4969693;28;20092;-91
2022/12/23 06:16:33;;;;;;;53.45;14.55;;;;;;;;;;4985433;28;20042;-91
2022/12/23 06:18:59;;;;;;;65.18;17.10;;;;;;;;;;5008684;28;20042;-90
2022/12/23 06:21:25;;;;;;;62.22;16.63;;;;;;;;;;4988989;28;22414;-91
2022/12/23 06:23:51;;;;;;;56.25;15.35;;;;;;;;;;4972159;28;20027;-91
2022/12/23 06:26:17;;;;;;;48.63;14.93;;;;;;;;;;4988074;28;20325;-91
2022/12/23 06:28:43;;;;;;;55.83;15.60;;;;;;;;;;4969407;28;20030;-91
2022/12/23 06:31:09;;;;;;;53.28;14.35;;;;;;;;;;4973152;28;20042;-92
2022/12/23 06:33:35;;;;;;;49.85;14.15;;;;;;;;;;4986112;28;20501;-91
2022/12/23 06:36:01;;;;;;;52.53;15.57;;;;;;;;;;4987821;28;20034;-90
2022/12/23 06:38:27;;;;;;;76.70;17.42;;;;;;;;;;4988729;28;20129;-91
2022/12/23 06:40:53;;;;;;;81.28;20.42;;;;;;;;;;4974201;28;20034;-91
2022/12/23 06:43:20;;;;;;;82.65;21.63;;;;;;;;;;4971862;28;20068;-91
2022/12/23 06:45:46;;;;;;;94.88;21.73;;;;;;;;;;4997875;28;20049;-91
2022/12/23 06:48:12;;;;;;;84.55;20.85;;;;;;;;;;4974713;28;20038;-90
2022/12/23 06:50:38;;;;;;;73.50;20.20;;;;;;;;;;5004505;28;20149;-90
2022/12/23 06:53:04;;;;;;;89.38;20.75;;;;;;;;;;4973266;28;20124;-90
2022/12/23 06:55:31;;;;;;;90.40;21.77;;;;;;;;;;5005752;28;20508;-91
2022/12/23 06:57:57;;;;;;;87.20;22.13;;;;;;;;;;5001372;28;20030;-91
2022/12/23 07:00:23;;;;;;;90.40;20.92;;;;;;;;;;4987782;28;20062;-92
2022/12/23 07:02:49;;;;;;;106.53;23.23;;;;;;;;;;4991283;28;20034;-92
2022/12/23 07:05:15;;;;;;;87.43;22.15;;;;;;;;;;5003746;28;20041;-91
2022/12/23 07:07:42;;;;;;;78.95;20.20;;;;;;;;;;4980958;28;20489;-91
2022/12/23 07:10:08;;;;;;;82.22;19.67;;;;;;;;;;4989976;28;20738;-90
2022/12/23 07:12:34;;;;;;;89.22;20.80;;;;;;;;;;4975980;28;20119;-91
2022/12/23 07:15:00;;;;;;;82.75;22.00;;;;;;;;;;4978356;28;20480;-91
2022/12/23 07:17:26;;;;;;;89.30;21.00;;;;;;;;;;5001179;28;20065;-90
2022/12/23 07:19:52;;;;;;;97.72;21.75;;;;;;;;;;4992127;28;20030;-91
2022/12/23 07:22:19;;;;;;;83.68;21.33;;;;;;;;;;4975734;28;20046;-90
2022/12/23 07:24:45;;;;;;;89.32;21.35;;;;;;;;;;4971131;28;20061;-92
2022/12/23 07:27:11;;;;;;;97.03;21.05;;;;;;;;;;4971791;28;20910;-91
2022/12/23 07:29:37;;;;;;;80.40;19.10;;;;;;;;;;4992610;28;20076;-91
2022/12/23 07:32:03;;;;;;;69.53;18.05;;;;;;;;;;4971460;28;20030;-91
2022/12/23 07:34:29;;;;;;;79.15;20.33;;;;;;;;;;4979070;28;20037;-92
2022/12/23 07:36:55;;;;;;;80.53;20.15;;;;;;;;;;4965991;28;20502;-92
2022/12/23 07:39:21;;;;;;;73.10;19.15;;;;;;;;;;4980212;28;20045;-92
2022/12/23 07:41:47;;;;;;;78.15;20.85;;;;;;;;;;4980126;28;20786;-90
2022/12/23 07:44:13;;;;;;;99.10;19.98;;;;;;;;;;4971255;28;20045;-89
2022/12/23 07:46:39;;;;;;;72.55;19.48;;;;;;;;;;4984473;28;20065;-89
2022/12/23 07:49:05;;;;;;;75.93;19.10;;;;;;;;;;4984893;28;20042;-88
2022/12/23 07:51:31;;;;;;;74.68;19.75;;;;;;;;;;4993683;28;20030;-89
2022/12/23 07:53:57;;;;;;;78.80;19.13;;;;;;;;;;4972602;28;20048;-89
2022/12/23 07:56:26;;;;;;;69.30;18.33;;;;;;;;;;4974991;28;20030;-89
2022/12/23 07:58:55;;;;;;;90.22;20.02;;;;;;;;;;4968559;28;20473;-89
2022/12/23 08:01:44;;;;;;;75.85;18.98;;;;;;;;;;4996333;28;20030;-89
2022/12/23 08:04:10;;;;;;;77.85;18.77;;;;;;;;;;4984469;28;20042;-89
2022/12/23 08:06:36;;;;;;;72.30;19.45;;;;;;;;;;4987514;28;20037;-89
2022/12/23 08:09:03;;;;;;;81.75;20.10;;;;;;;;;;4989842;28;20040;-89
2022/12/23 08:11:29;;;;;;;81.65;19.17;;;;;;;;;;4971677;28;20497;-89
2022/12/23 08:13:55;;;;;;;86.63;19.98;;;;;;;;;;4985801;28;20038;-88
2022/12/23 08:16:21;;;;;;;80.63;18.25;;;;;;;;;;4992697;28;20034;-90
2022/12/23 08:18:47;;;;;;;63.10;18.58;;;;;;;;;;4982889;28;20076;-89
2022/12/23 08:21:14;;;;;;;64.47;18.80;;;;;;;;;;5001771;28;20041;-90
2022/12/23 08:23:42;;;;;;;72.50;17.88;;;;;;;;;;5000691;28;20030;-88
2022/12/23 08:26:12;;;;;;;69.97;18.02;;;;;;;;;;4981776;28;20034;-89
2022/12/23 08:28:39;;;;;;;73.55;17.42;;;;;;;;;;4987297;28;20045;-89
2022/12/23 08:31:16;;;;;;;71.60;18.17;;;;;;;;;;4969965;28;20030;-89
2022/12/23 08:33:43;;;;;;;54.55;15.07;;;;;;;;;;4997837;28;20029;-88
2022/12/23 08:36:12;;;;;;;51.47;15.90;;;;;;;;;;4986438;28;20038;-89
2022/12/23 08:38:38;;;;;;;57.75;16.42;;;;;;;;;;4976614;28;20061;-89
2022/12/23 08:41:08;;;;;;;55.47;15.30;;;;;;;;;;4999165;28;20041;-88
2022/12/23 08:43:34;;;;;;;60.42;16.23;;;;;;;;;;4998104;28;20044;-89
2022/12/23 08:46:00;;;;;;;48.63;14.20;;;;;;;;;;5008000;28;20071;-88
2022/12/23 08:48:32;;;;;;;68.78;14.82;;;;;;;;;;4965746;28;20619;-89
2022/12/23 08:51:02;;;;;;;41.17;13.55;;;;;;;;;;4995502;28;20034;-89
2022/12/23 08:53:28;;;;;;;52.30;12.70;;;;;;;;;;4997559;28;20030;-88
2022/12/23 08:55:54;;;;;;;43.83;12.82;;;;;;;;;;4967765;28;20133;-89
2022/12/23 08:58:20;;;;;;;55.97;14.90;;;;;;;;;;4994963;28;20215;-89
2022/12/23 09:00:46;;;;;;;47.42;14.85;;;;;;;;;;4998272;28;20030;-88
2022/12/23 09:03:12;;;;;;;58.65;15.43;;;;;;;;;;4969078;28;20042;-90
2022/12/23 09:05:40;;;;;;;60.80;15.52;;;;;;;;;;4985754;28;20386;-89
2022/12/23 09:08:06;;;;;;;48.35;14.63;;;;;;;;;;4979993;28;20031;-88
2022/12/23 09:10:32;;;;;;;60.38;14.68;;;;;;;;;;4984302;28;20052;-89
2022/12/23 09:12:58;;;;;;;56.00;15.13;;;;;;;;;;4979267;28;20425;-89
2022/12/23 09:15:24;;;;;;;60.50;15.82;;;;;;;;;;4980944;28;20041;-89
2022/12/23 09:17:50;;;;;;;61.33;16.20;;;;;;;;;;4993010;28;20034;-89
2022/12/23 09:20:16;;;;;;;59.65;17.67;;;;;;;;;;4978086;28;20049;-89
2022/12/23 09:22:42;;;;;;;56.33;16.13;;;;;;;;;;4978924;28;20069;-89
2022/12/23 09:25:09;;;;;;;56.33;16.33;;;;;;;;;;4967895;28;20053;-88
2022/12/23 09:27:35;;;;;;;50.85;14.27;;;;;;;;;;4986306;28;20026;-89
2022/12/23 09:30:01;;;;;;;60.92;15.43;;;;;;;;;;4986256;28;20053;-88
2022/12/23 09:32:27;;;;;;;50.00;13.43;;;;;;;;;;4977544;28;20042;-89
2022/12/23 09:34:53;;;;;;;61.92;14.43;;;;;;;;;;4962740;28;20034;-89
2022/12/23 09:37:19;;;;;;;51.30;13.65;;;;;;;;;;4967508;28;20605;-89
2022/12/23 09:39:45;;;;;;;47.60;13.90;;;;;;;;;;4979420;28;20546;-89
2022/12/23 09:42:30;;;;;;;45.00;13.70;;;;;;;;;;4980269;28;20477;-89
2022/12/23 09:44:56;;;;;;;48.03;14.10;;;;;;;;;;4994188;28;20045;-88
2022/12/23 09:47:36;;;;;;;47.47;14.07;;;;;;;;;;4997672;28;20077;-89
2022/12/23 09:50:06;;;;;;;45.22;14.27;;;;;;;;;;4986739;28;20038;-88
2022/12/23 09:52:38;;;;;;;44.63;13.57;;;;;;;;;;4996048;28;20038;-88
2022/12/23 09:55:07;;;;;;;53.22;14.93;;;;;;;;;;4983593;28;20054;-88
2022/12/23 09:57:50;;;;;;;52.22;14.85;;;;;;;;;;4981999;28;20041;-89
2022/12/23 10:00:18;;;;;;;48.60;14.18;;;;;;;;;;4995475;28;20429;-88
2022/12/23 10:03:03;;;;;;;49.10;14.23;;;;;;;;;;4981614;28;20034;-89
2022/12/23 10:05:29;;;;;;;52.53;14.27;;;;;;;;;;4998343;28;20666;-89
2022/12/23 10:07:58;;;;;;;38.58;12.55;;;;;;;;;;4995064;28;20022;-88
2022/12/23 10:10:41;;;;;;;42.30;14.02;;;;;;;;;;4983741;28;20152;-89
2022/12/23 10:13:13;;;;;;;37.03;12.88;;;;;;;;;;4983510;28;20027;-89
2022/12/23 10:15:45;;;;;;;37.67;11.82;;;;;;;;;;4987123;28;20030;-89
2022/12/23 10:18:20;;;;;;;40.97;12.45;;;;;;;;;;4983498;28;20069;-89
2022/12/23 10:20:48;;;;;;;36.40;11.95;;;;;;;;;;5006920;28;20738;-90
2022/12/23 10:23:21;;;;;;;44.60;14.23;;;;;;;;;;5004974;28;20465;-89
2022/12/23 10:25:51;;;;;;;36.83;12.70;;;;;;;;;;5001776;28;20619;-89
2022/12/23 10:28:17;;;;;;;38.67;12.50;;;;;;;;;;5004151;28;20056;-89
2022/12/23 10:30:45;;;;;;;38.03;13.18;;;;;;;;;;4980057;28;20092;-89
2022/12/23 10:33:20;;;;;;;59.03;15.00;;;;;;;;;;4996818;28;20061;-88
2022/12/23 10:36:08;;;;;;;59.75;14.60;;;;;;;;;;4987355;28;20049;-89
2022/12/23 10:38:52;;;;;;;60.42;15.48;;;;;;;;;;4982245;28;20772;-88
2022/12/23 10:41:25;;;;;;;71.22;15.63;;;;;;;;;;4985030;28;20494;-88
2022/12/23 10:44:29;;;;;;;84.95;15.80;;;;;;;;;;5000798;28;20081;-89
2022/12/23 10:47:13;;;;;;;59.78;15.07;;;;;;;;;;4886083;28;20088;-89
2022/12/23 10:49:46;;;;;;;60.78;14.75;;;;;;;;;;4955032;28;20093;-89
2022/12/23 10:52:17;;;;;;;74.85;12.15;;;;;;;;;;4959939;28;20023;-88
2022/12/23 10:54:44;;;;;;;46.85;12.77;;;;;;;;;;4941794;28;20026;-88
2022/12/23 10:57:11;;;;;;;40.40;13.00;;;;;;;;;;4944765;28;20039;-88
2022/12/23 10:59:38;;;;;;;67.00;13.23;;;;;;;;;;4945633;28;20093;-87
2022/12/23 11:02:15;;;;;;;71.95;13.50;;;;;;;;;;4943441;28;20031;-88
2022/12/23 11:04:43;;;;;;;46.47;11.88;;;;;;;;;;4964008;28;20827;-89
2022/12/23 11:07:20;;;;;;;79.63;14.30;;;;;;;;;;4948129;28;20030;-89
2022/12/23 11:09:48;;;;;;;37.85;10.63;;;;;;;;;;4950082;28;20035;-89
2022/12/23 11:12:26;;;;;;;50.90;14.00;;;;;;;;;;4950270;28;20027;-88
2022/12/23 11:14:56;;;;;;;45.25;11.35;;;;;;;;;;4925628;28;20038;-88
2022/12/23 11:17:32;;;;;;;30.67;11.07;;;;;;;;;;4954582;28;20074;-88
2022/12/23 11:20:16;;;;;;;31.70;10.75;;;;;;;;;;4950160;28;20046;-89
2022/12/23 11:22:50;;;;;;;36.85;11.80;;;;;;;;;;4950872;28;20153;-89
2022/12/23 11:25:19;;;;;;;33.17;10.70;;;;;;;;;;4947139;28;20121;-90
2022/12/23 11:27:45;;;;;;;32.47;11.20;;;;;;;;;;4960876;28;20035;-90
2022/12/23 11:30:18;;;;;;;41.13;10.00;;;;;;;;;;4942688;28;20034;-89
2022/12/23 11:32:44;;;;;;;31.73;9.85;;;;;;;;;;4967451;28;20035;-89
2022/12/23 11:35:37;;;;;;;25.23;9.82;;;;;;;;;;4952371;28;20049;-89
2022/12/23 11:38:03;;;;;;;25.65;8.52;;;;;;;;;;4946380;28;20039;-89
2022/12/23 11:40:38;;;;;;;26.92;9.43;;;;;;;;;;4949606;28;20448;-89
2022/12/23 11:43:05;;;;;;;35.13;9.70;;;;;;;;;;4948557;28;20034;-89
2022/12/23 11:45:33;;;;;;;37.97;11.20;;;;;;;;;;4948589;28;20409;-89
2022/12/23 11:48:00;;;;;;;29.35;9.68;;;;;;;;;;4972382;28;20552;-89
2022/12/23 11:50:26;;;;;;;36.75;10.07;;;;;;;;;;4966179;28;20023;-88
2022/12/23 11:52:54;;;;;;;29.90;9.63;;;;;;;;;;4971653;28;20041;-90
2022/12/23 11:55:28;;;;;;;35.30;9.38;;;;;;;;;;4965509;28;20826;-89
2022/12/23 11:57:55;;;;;;;33.13;10.75;;;;;;;;;;4980737;28;20034;-89
2022/12/23 12:00:27;;;;;;;33.40;9.98;;;;;;;;;;4963670;28;20149;-89
2022/12/23 12:02:59;;;;;;;22.50;8.63;;;;;;;;;;4963755;28;20035;-89
2022/12/23 12:05:30;;;;;;;36.25;8.98;;;;;;;;;;4981296;28;20088;-89
2022/12/23 12:08:01;;;;;;;26.40;9.38;;;;;;;;;;4978159;28;20026;-89
2022/12/23 12:10:31;;;;;;;28.55;9.70;;;;;;;;;;4981693;28;20045;-89
2022/12/23 12:12:59;;;;;;;30.13;9.30;;;;;;;;;;4968814;28;20503;-89
2022/12/23 12:15:28;;;;;;;24.95;9.55;;;;;;;;;;4972885;28;20030;-90
2022/12/23 12:17:55;;;;;;;43.25;10.68;;;;;;;;;;4987667;28;20541;-89
2022/12/23 12:20:30;;;;;;;52.20;11.30;;;;;;;;;;4966745;28;20410;-89
2022/12/23 12:23:03;;;;;;;39.80;12.07;;;;;;;;;;4981047;28;20490;-89
2022/12/23 12:25:47;;;;;;;64.18;11.48;;;;;;;;;;4968340;28;20048;-89
2022/12/23 12:28:14;;;;;;;51.65;11.27;;;;;;;;;;4977643;28;20037;-89
2022/12/23 12:30:48;;;;;;;56.50;11.82;;;;;;;;;;4974032;28;20498;-89
2022/12/23 12:33:21;;;;;;;49.10;12.95;;;;;;;;;;4976838;28;20030;-89
2022/12/23 12:35:48;;;;;;;46.30;12.88;;;;;;;;;;4973677;28;20035;-89
2022/12/23 12:38:23;;;;;;;51.58;13.45;;;;;;;;;;4946218;28;20034;-89
2022/12/23 12:40:51;;;;;;;63.97;14.82;;;;;;;;;;4979785;28;20038;-89
2022/12/23 12:43:30;;;;;;;46.92;14.10;;;;;;;;;;4972890;28;20627;-89
2022/12/23 12:45:59;;;;;;;48.97;14.93;;;;;;;;;;4980480;28;20025;-89
2022/12/23 12:48:55;;;;;;;46.47;13.98;;;;;;;;;;4980867;28;20058;-89
2022/12/23 12:51:39;;;;;;;57.47;15.02;;;;;;;;;;4965082;28;20556;-89
2022/12/23 12:54:05;;;;;;;54.97;14.13;;;;;;;;;;4963975;28;20046;-89
2022/12/23 12:56:44;;;;;;;49.65;13.77;;;;;;;;;;4986033;28;20038;-89
2022/12/23 12:59:16;;;;;;;45.42;14.23;;;;;;;;;;4968376;28;20125;-89
2022/12/23 13:01:42;;;;;;;55.97;14.25;;;;;;;;;;4974569;28;20038;-89
2022/12/23 13:04:27;;;;;;;54.88;14.55;;;;;;;;;;4965891;28;20026;-89
2022/12/23 13:07:23;;;;;;;55.08;16.15;;;;;;;;;;4965275;28;20041;-89
2022/12/23 13:09:58;;;;;;;54.50;14.15;;;;;;;;;;4954090;28;20038;-89
2022/12/23 13:12:24;;;;;;;50.25;14.52;;;;;;;;;;4970667;28;20522;-90
2022/12/23 13:15:03;;;;;;;46.83;14.88;;;;;;;;;;4965155;28;20044;-89
2022/12/23 13:17:36;;;;;;;51.00;14.82;;;;;;;;;;4964071;28;20030;-88
2022/12/23 13:20:24;;;;;;;58.47;14.45;;;;;;;;;;4983874;28;20030;-89
2022/12/23 13:22:55;;;;;;;54.75;15.85;;;;;;;;;;4983103;28;20046;-89
2022/12/23 13:25:24;;;;;;;50.33;14.40;;;;;;;;;;4976993;28;20069;-89
2022/12/23 13:27:50;;;;;;;44.83;15.38;;;;;;;;;;4967131;28;20071;-89
2022/12/23 13:30:19;;;;;;;57.78;16.08;;;;;;;;;;4964749;28;20101;-88
2022/12/23 13:32:54;;;;;;;51.80;14.85;;;;;;;;;;4965427;28;20117;-87
2022/12/23 13:35:35;;;;;;;59.60;14.98;;;;;;;;;;4959929;28;22942;-87
2022/12/23 13:38:04;;;;;;;54.45;14.93;;;;;;;;;;4982869;28;20026;-88
2022/12/23 13:40:42;;;;;;;64.60;17.35;;;;;;;;;;4967779;28;20133;-88
2022/12/23 13:43:19;;;;;;;58.50;16.48;;;;;;;;;;4968554;28;20074;-87
2022/12/23 13:45:46;;;;;;;73.63;18.23;;;;;;;;;;4967724;28;20061;-87
2022/12/23 13:48:18;;;;;;;73.40;19.38;;;;;;;;;;4962690;28;20087;-88
2022/12/23 13:51:03;;;;;;;90.72;19.83;;;;;;;;;;4964094;28;20042;-87
2022/12/23 13:53:46;;;;;;;78.78;18.60;;;;;;;;;;4979250;28;20026;-88
2022/12/23 13:56:18;;;;;;;70.53;18.67;;;;;;;;;;4979911;28;20026;-88
2022/12/23 13:58:46;;;;;;;73.25;19.17;;;;;;;;;;4975519;28;20030;-88
2022/12/23 14:01:12;;;;;;;78.72;17.55;;;;;;;;;;4975177;28;20411;-88
2022/12/23 14:03:39;;;;;;;72.72;18.35;;;;;;;;;;4968571;28;20054;-88
2022/12/23 14:06:23;;;;;;;75.28;21.33;;;;;;;;;;4961797;28;20085;-88
2022/12/23 14:08:50;;;;;;;83.72;21.27;;;;;;;;;;4981992;28;20054;-89
2022/12/23 14:11:16;;;;;;;85.03;24.45;;;;;;;;;;4980745;28;20039;-88
2022/12/23 14:13:44;;;;;;;76.28;18.88;;;;;;;;;;4969618;28;20030;-89
2022/12/23 14:16:15;;;;;;;94.65;23.17;;;;;;;;;;4960071;28;20038;-89
2022/12/23 14:18:41;;;;;;;90.38;20.70;;;;;;;;;;4961346;28;20030;-89
2022/12/23 14:21:07;;;;;;;78.43;22.38;;;;;;;;;;4963718;28;20049;-89
2022/12/23 14:23:43;;;;;;;95.63;23.80;;;;;;;;;;4982058;28;20486;-89
2022/12/23 14:26:24;;;;;;;93.03;22.23;;;;;;;;;;4970198;28;20516;-89
2022/12/23 14:28:59;;;;;;;74.75;21.17;;;;;;;;;;4980217;28;20030;-89
2022/12/23 14:31:28;;;;;;;81.07;22.88;;;;;;;;;;4962349;28;20022;-89
2022/12/23 14:34:01;;;;;;;75.97;20.83;;;;;;;;;;4961584;28;20037;-89
2022/12/23 14:36:27;;;;;;;78.15;18.50;;;;;;;;;;4956893;28;20118;-89
2022/12/23 14:39:11;;;;;;;79.55;20.98;;;;;;;;;;4947016;28;20093;-88
2022/12/23 14:41:51;;;;;;;84.97;20.80;;;;;;;;;;4961071;28;20038;-89
2022/12/23 14:44:19;;;;;;;74.15;18.80;;;;;;;;;;4966514;28;20034;-89
2022/12/23 14:46:45;;;;;;;71.95;18.10;;;;;;;;;;4966158;28;20696;-88
2022/12/23 14:49:21;;;;;;;79.25;20.13;;;;;;;;;;4978683;28;20050;-88
2022/12/23 14:51:49;;;;;;;82.30;18.35;;;;;;;;;;4942775;28;20072;-89
2022/12/23 14:54:16;;;;;;;75.82;19.63;;;;;;;;;;4964392;28;20034;-90
2022/12/23 14:56:57;;;;;;;79.30;19.80;;;;;;;;;;4959641;28;20038;-88